SHT5B EGLL-EGCC
Flight info
| Callsign | SHT5B |
|---|---|
| Flight time | 0h 34m |
| Altitude | 18000 |
| Route | ULTIB T420 ELVOS |
| Aircraft | A320/M-SDE3FGHIRWY/LB1 |
Departure
| Time | 2026-05-07 14:03 |
|---|---|
| Airport | London Heathrow Airport (EGLL) |
Arrival
| Time | 2026-05-07 14:37 |
|---|---|
| Airport | Manchester Airport (EGCC) |
| Time | Latitude | Longitude | Altitude | Speed | Heading |
|---|---|---|---|---|---|
| 2026-05-07 13:44 | 51.46930 | -0.48787 | 113 ft | 0 kts | 360° |
| 2026-05-07 13:54 | 51.46911 | -0.48787 | 90 ft | 4 kts | 360° |
| 2026-05-07 13:54 | 51.46890 | -0.48786 | 89 ft | 4 kts | 10° |
| 2026-05-07 13:55 | 51.46876 | -0.48802 | 87 ft | 4 kts | 89° |
| 2026-05-07 13:55 | 51.46876 | -0.48782 | 87 ft | 3 kts | 90° |
| 2026-05-07 13:55 | 51.46876 | -0.48777 | 87 ft | 0 kts | 90° |
| 2026-05-07 13:58 | 51.46876 | -0.48762 | 89 ft | 2 kts | 98° |
| 2026-05-07 13:58 | 51.46868 | -0.48758 | 88 ft | 2 kts | 152° |
| 2026-05-07 13:58 | 51.46849 | -0.48751 | 86 ft | 4 kts | 172° |
| 2026-05-07 13:58 | 51.46815 | -0.48749 | 86 ft | 6 kts | 181° |
| 2026-05-07 13:59 | 51.46766 | -0.48750 | 86 ft | 8 kts | 181° |
| 2026-05-07 13:59 | 51.46702 | -0.48751 | 89 ft | 10 kts | 178° |
| 2026-05-07 13:59 | 51.46623 | -0.48751 | 86 ft | 12 kts | 188° |
| 2026-05-07 13:59 | 51.46615 | -0.48754 | 87 ft | 2 kts | 195° |
| 2026-05-07 14:00 | 51.46602 | -0.48760 | 86 ft | 0 kts | 195° |
| 2026-05-07 14:00 | 51.46599 | -0.48762 | 86 ft | 1 kts | 195° |
| 2026-05-07 14:00 | 51.46582 | -0.48770 | 89 ft | 4 kts | 198° |
| 2026-05-07 14:01 | 51.46551 | -0.48784 | 88 ft | 6 kts | 189° |
| 2026-05-07 14:01 | 51.46504 | -0.48764 | 87 ft | 8 kts | 149° |
| 2026-05-07 14:01 | 51.46477 | -0.48673 | 87 ft | 11 kts | 89° |
| 2026-05-07 14:01 | 51.46480 | -0.48606 | 86 ft | 5 kts | 88° |
| 2026-05-07 14:02 | 51.46482 | -0.48435 | 87 ft | 42 kts | 90° |
| 2026-05-07 14:02 | 51.46480 | -0.47597 | 85 ft | 105 kts | 89° |
| 2026-05-07 14:02 | 51.46484 | -0.46157 | 89 ft | 151 kts | 89° |
| 2026-05-07 14:02 | 51.46476 | -0.44291 | 115 ft | 185 kts | 91° |
| 2026-05-07 14:03 | 51.46492 | -0.42175 | 533 ft | 195 kts | 89° |
| 2026-05-07 14:03 | 51.46764 | -0.40064 | 1291 ft | 195 kts | 61° |
| 2026-05-07 14:03 | 51.47591 | -0.38258 | 1717 ft | 211 kts | 48° |
| 2026-05-07 14:03 | 51.48641 | -0.36474 | 2049 ft | 230 kts | 45° |
| 2026-05-07 14:04 | 51.49787 | -0.34575 | 2629 ft | 242 kts | 46° |
| 2026-05-07 14:04 | 51.50988 | -0.32527 | 3212 ft | 259 kts | 47° |
| 2026-05-07 14:04 | 51.52135 | -0.30248 | 4049 ft | 266 kts | 62° |
| 2026-05-07 14:04 | 51.52848 | -0.27479 | 4929 ft | 270 kts | 69° |
| 2026-05-07 14:05 | 51.53743 | -0.24804 | 5708 ft | 277 kts | 50° |
| 2026-05-07 14:05 | 51.55267 | -0.22949 | 6250 ft | 278 kts | 21° |
| 2026-05-07 14:05 | 51.57157 | -0.22413 | 7137 ft | 278 kts | 355° |
| 2026-05-07 14:05 | 51.59043 | -0.23133 | 7977 ft | 281 kts | 342° |
| 2026-05-07 14:06 | 51.60957 | -0.23928 | 8785 ft | 286 kts | 344° |
| 2026-05-07 14:06 | 51.62832 | -0.25067 | 9571 ft | 291 kts | 332° |
| 2026-05-07 14:06 | 51.64634 | -0.26595 | 10307 ft | 296 kts | 330° |
| 2026-05-07 14:06 | 51.66498 | -0.28297 | 10548 ft | 320 kts | 329° |
| 2026-05-07 14:07 | 51.68471 | -0.30182 | 10852 ft | 336 kts | 328° |
| 2026-05-07 14:07 | 51.70476 | -0.32133 | 11631 ft | 337 kts | 328° |
| 2026-05-07 14:07 | 51.72492 | -0.34099 | 12348 ft | 340 kts | 328° |
| 2026-05-07 14:07 | 51.74529 | -0.36082 | 13052 ft | 344 kts | 328° |
| 2026-05-07 14:08 | 51.76587 | -0.38084 | 13744 ft | 347 kts | 328° |
| 2026-05-07 14:08 | 51.78672 | -0.40107 | 14341 ft | 351 kts | 328° |
| 2026-05-07 14:08 | 51.80745 | -0.42111 | 14955 ft | 353 kts | 328° |
| 2026-05-07 14:08 | 51.82890 | -0.44189 | 15577 ft | 356 kts | 328° |
| 2026-05-07 14:09 | 51.84994 | -0.46232 | 16175 ft | 359 kts | 328° |
| 2026-05-07 14:09 | 51.87141 | -0.48321 | 16782 ft | 361 kts | 327° |
| 2026-05-07 14:09 | 51.89303 | -0.50426 | 17391 ft | 364 kts | 327° |
| 2026-05-07 14:09 | 51.91478 | -0.52547 | 17912 ft | 362 kts | 327° |
| 2026-05-07 14:10 | 51.93575 | -0.54592 | 18037 ft | 346 kts | 327° |
| 2026-05-07 14:10 | 51.95627 | -0.56598 | 18057 ft | 343 kts | 327° |
| 2026-05-07 14:10 | 51.97669 | -0.58596 | 18057 ft | 342 kts | 327° |
| 2026-05-07 14:10 | 51.99702 | -0.60583 | 18055 ft | 342 kts | 327° |
| 2026-05-07 14:11 | 52.01740 | -0.62574 | 18054 ft | 342 kts | 327° |
| 2026-05-07 14:11 | 52.03777 | -0.64567 | 18057 ft | 341 kts | 327° |
| 2026-05-07 14:11 | 52.05809 | -0.66564 | 18059 ft | 342 kts | 327° |
| 2026-05-07 14:11 | 52.07845 | -0.68569 | 18057 ft | 342 kts | 327° |
| 2026-05-07 14:12 | 52.09880 | -0.70574 | 18057 ft | 342 kts | 327° |
| 2026-05-07 14:12 | 52.11919 | -0.72583 | 18058 ft | 342 kts | 327° |
| 2026-05-07 14:12 | 52.13929 | -0.74562 | 18060 ft | 342 kts | 327° |
| 2026-05-07 14:12 | 52.15966 | -0.76566 | 18062 ft | 342 kts | 327° |
| 2026-05-07 14:13 | 52.18007 | -0.78573 | 18062 ft | 343 kts | 327° |
| 2026-05-07 14:13 | 52.20047 | -0.80583 | 18063 ft | 343 kts | 327° |
| 2026-05-07 14:13 | 52.22089 | -0.82602 | 18064 ft | 343 kts | 327° |
| 2026-05-07 14:13 | 52.24126 | -0.84623 | 18065 ft | 343 kts | 327° |
| 2026-05-07 14:14 | 52.26164 | -0.86645 | 18068 ft | 343 kts | 327° |
| 2026-05-07 14:14 | 52.28201 | -0.88666 | 18068 ft | 343 kts | 327° |
| 2026-05-07 14:14 | 52.30244 | -0.90693 | 18066 ft | 343 kts | 327° |
| 2026-05-07 14:14 | 52.32283 | -0.92719 | 18064 ft | 343 kts | 327° |
| 2026-05-07 14:15 | 52.34320 | -0.94748 | 18069 ft | 339 kts | 327° |
| 2026-05-07 14:15 | 52.36302 | -0.96720 | 18055 ft | 331 kts | 327° |
| 2026-05-07 14:15 | 52.38263 | -0.98677 | 18057 ft | 330 kts | 326° |
| 2026-05-07 14:15 | 52.40221 | -1.00642 | 18064 ft | 330 kts | 326° |
| 2026-05-07 14:16 | 52.42180 | -1.02610 | 18064 ft | 330 kts | 326° |
| 2026-05-07 14:16 | 52.44142 | -1.04579 | 18049 ft | 330 kts | 326° |
| 2026-05-07 14:16 | 52.46107 | -1.06548 | 18047 ft | 330 kts | 326° |
| 2026-05-07 14:16 | 52.48067 | -1.08518 | 18047 ft | 330 kts | 326° |
| 2026-05-07 14:17 | 52.50028 | -1.10489 | 18043 ft | 330 kts | 326° |
| 2026-05-07 14:17 | 52.51987 | -1.12464 | 18048 ft | 330 kts | 326° |
| 2026-05-07 14:17 | 52.53945 | -1.14439 | 18047 ft | 331 kts | 326° |
| 2026-05-07 14:17 | 52.55906 | -1.16416 | 18046 ft | 331 kts | 326° |
| 2026-05-07 14:18 | 52.57844 | -1.18371 | 18042 ft | 331 kts | 326° |
| 2026-05-07 14:18 | 52.59835 | -1.20376 | 18042 ft | 331 kts | 326° |
| 2026-05-07 14:18 | 52.61770 | -1.22328 | 18042 ft | 331 kts | 326° |
| 2026-05-07 14:18 | 52.63736 | -1.24312 | 18042 ft | 331 kts | 326° |
| 2026-05-07 14:19 | 52.65699 | -1.26298 | 18047 ft | 331 kts | 326° |
| 2026-05-07 14:19 | 52.67667 | -1.28291 | 18048 ft | 332 kts | 326° |
| 2026-05-07 14:19 | 52.69632 | -1.30283 | 18049 ft | 332 kts | 326° |
| 2026-05-07 14:19 | 52.71599 | -1.32284 | 18050 ft | 332 kts | 326° |
| 2026-05-07 14:20 | 52.73553 | -1.34270 | 17839 ft | 328 kts | 326° |
| 2026-05-07 14:20 | 52.75493 | -1.36242 | 17452 ft | 327 kts | 326° |
| 2026-05-07 14:20 | 52.77423 | -1.38207 | 17080 ft | 325 kts | 326° |
| 2026-05-07 14:20 | 52.79340 | -1.40165 | 16714 ft | 323 kts | 326° |
| 2026-05-07 14:21 | 52.81251 | -1.42119 | 16349 ft | 322 kts | 326° |
| 2026-05-07 14:21 | 52.83150 | -1.44066 | 15999 ft | 320 kts | 326° |
| 2026-05-07 14:21 | 52.85041 | -1.46008 | 15644 ft | 319 kts | 326° |
| 2026-05-07 14:21 | 52.86922 | -1.47941 | 15305 ft | 317 kts | 326° |
| 2026-05-07 14:22 | 52.88795 | -1.49863 | 14970 ft | 316 kts | 326° |
| 2026-05-07 14:22 | 52.90638 | -1.51756 | 14645 ft | 315 kts | 326° |
| 2026-05-07 14:22 | 52.92503 | -1.53677 | 14286 ft | 315 kts | 326° |
| 2026-05-07 14:22 | 52.94362 | -1.55592 | 13943 ft | 315 kts | 326° |
| 2026-05-07 14:23 | 52.96222 | -1.57507 | 13586 ft | 314 kts | 326° |
| 2026-05-07 14:23 | 52.98072 | -1.59414 | 13241 ft | 312 kts | 326° |
| 2026-05-07 14:23 | 52.99911 | -1.61313 | 12901 ft | 310 kts | 326° |
| 2026-05-07 14:23 | 53.01739 | -1.63205 | 12568 ft | 309 kts | 326° |
| 2026-05-07 14:24 | 53.03556 | -1.65086 | 12246 ft | 307 kts | 326° |
| 2026-05-07 14:24 | 53.05293 | -1.67115 | 11913 ft | 303 kts | 316° |
| 2026-05-07 14:24 | 53.06759 | -1.69610 | 11591 ft | 299 kts | 307° |
| 2026-05-07 14:24 | 53.08106 | -1.72238 | 11261 ft | 298 kts | 307° |
| 2026-05-07 14:25 | 53.09455 | -1.74856 | 10944 ft | 297 kts | 308° |
| 2026-05-07 14:25 | 53.10796 | -1.77452 | 10636 ft | 296 kts | 308° |
| 2026-05-07 14:25 | 53.12120 | -1.80013 | 10338 ft | 294 kts | 307° |
| 2026-05-07 14:25 | 53.13450 | -1.82594 | 10038 ft | 293 kts | 307° |
| 2026-05-07 14:26 | 53.14772 | -1.85169 | 9703 ft | 292 kts | 307° |
| 2026-05-07 14:26 | 53.16087 | -1.87732 | 9367 ft | 290 kts | 307° |
| 2026-05-07 14:26 | 53.17397 | -1.90281 | 9053 ft | 288 kts | 307° |
| 2026-05-07 14:26 | 53.18686 | -1.92789 | 8901 ft | 281 kts | 307° |
| 2026-05-07 14:27 | 53.19938 | -1.95226 | 8770 ft | 273 kts | 307° |
| 2026-05-07 14:27 | 53.21155 | -1.97601 | 8632 ft | 266 kts | 307° |
| 2026-05-07 14:27 | 53.22348 | -1.99938 | 8402 ft | 263 kts | 307° |
| 2026-05-07 14:27 | 53.23527 | -2.02250 | 8143 ft | 261 kts | 307° |
| 2026-05-07 14:28 | 53.24708 | -2.04546 | 7887 ft | 260 kts | 309° |
| 2026-05-07 14:28 | 53.26167 | -2.06326 | 7657 ft | 264 kts | 336° |
| 2026-05-07 14:28 | 53.27982 | -2.06815 | 7365 ft | 267 kts | 358° |
| 2026-05-07 14:28 | 53.29815 | -2.06737 | 7095 ft | 267 kts | 1° |
| 2026-05-07 14:29 | 53.31651 | -2.06391 | 6823 ft | 266 kts | 18° |
| 2026-05-07 14:29 | 53.33335 | -2.05119 | 6546 ft | 265 kts | 28° |
| 2026-05-07 14:29 | 53.34946 | -2.03637 | 6245 ft | 264 kts | 29° |
| 2026-05-07 14:29 | 53.36539 | -2.02131 | 5980 ft | 262 kts | 29° |
| 2026-05-07 14:30 | 53.38122 | -2.00626 | 5689 ft | 261 kts | 29° |
| 2026-05-07 14:30 | 53.39705 | -1.99126 | 5380 ft | 261 kts | 29° |
| 2026-05-07 14:30 | 53.41277 | -1.97638 | 5117 ft | 259 kts | 30° |
| 2026-05-07 14:30 | 53.42845 | -1.96161 | 4813 ft | 258 kts | 29° |
| 2026-05-07 14:31 | 53.44407 | -1.94686 | 4472 ft | 258 kts | 30° |
| 2026-05-07 14:31 | 53.46020 | -1.93429 | 4208 ft | 255 kts | 10° |
| 2026-05-07 14:31 | 53.47735 | -1.93709 | 3923 ft | 249 kts | 331° |
| 2026-05-07 14:31 | 53.48953 | -1.95633 | 3617 ft | 240 kts | 290° |
| 2026-05-07 14:32 | 53.49129 | -1.98285 | 3492 ft | 229 kts | 249° |
| 2026-05-07 14:32 | 53.48347 | -2.00558 | 3496 ft | 225 kts | 229° |
| 2026-05-07 14:32 | 53.47381 | -2.02543 | 3494 ft | 213 kts | 228° |
| 2026-05-07 14:32 | 53.46472 | -2.04409 | 3453 ft | 202 kts | 228° |
| 2026-05-07 14:33 | 53.45601 | -2.06220 | 3261 ft | 198 kts | 228° |
| 2026-05-07 14:33 | 53.44744 | -2.08007 | 3025 ft | 195 kts | 227° |
| 2026-05-07 14:33 | 53.43914 | -2.09742 | 2772 ft | 187 kts | 227° |
| 2026-05-07 14:33 | 53.43122 | -2.11393 | 2523 ft | 180 kts | 227° |
| 2026-05-07 14:34 | 53.42368 | -2.12967 | 2287 ft | 167 kts | 227° |
| 2026-05-07 14:34 | 53.41675 | -2.14412 | 2070 ft | 152 kts | 226° |
| 2026-05-07 14:34 | 53.41042 | -2.15731 | 1886 ft | 139 kts | 226° |
| 2026-05-07 14:34 | 53.40441 | -2.16980 | 1691 ft | 135 kts | 225° |
| 2026-05-07 14:35 | 53.39854 | -2.18199 | 1503 ft | 135 kts | 226° |
| 2026-05-07 14:35 | 53.39265 | -2.19421 | 1322 ft | 134 kts | 226° |
| 2026-05-07 14:35 | 53.38681 | -2.20633 | 1128 ft | 133 kts | 226° |
| 2026-05-07 14:35 | 53.38100 | -2.21841 | 943 ft | 133 kts | 225° |
| 2026-05-07 14:36 | 53.37516 | -2.23052 | 750 ft | 135 kts | 227° |
| 2026-05-07 14:36 | 53.36929 | -2.24266 | 526 ft | 135 kts | 227° |
| 2026-05-07 14:36 | 53.36331 | -2.25492 | 322 ft | 136 kts | 229° |
| 2026-05-07 14:36 | 53.35762 | -2.26688 | 269 ft | 118 kts | 232° |
| 2026-05-07 14:37 | 53.35394 | -2.27450 | 243 ft | 65 kts | 231° |
| 2026-05-07 14:37 | 53.35237 | -2.28079 | 231 ft | 9 kts | 261° |
| 2026-05-07 14:37 | 53.35239 | -2.28191 | 232 ft | 10 kts | 296° |
| 2026-05-07 14:38 | 53.35288 | -2.28187 | 233 ft | 0 kts | 14° |
| 2026-05-07 14:39 | 53.35290 | -2.28186 | 233 ft | 1 kts | 14° |
| 2026-05-07 14:40 | 53.35305 | -2.28180 | 233 ft | 3 kts | 13° |
| 2026-05-07 14:40 | 53.35333 | -2.28170 | 235 ft | 5 kts | 12° |
| 2026-05-07 14:40 | 53.35381 | -2.28166 | 236 ft | 9 kts | 1° |
| 2026-05-07 14:40 | 53.35460 | -2.28152 | 237 ft | 15 kts | 15° |
| 2026-05-07 14:41 | 53.35562 | -2.28038 | 237 ft | 18 kts | 49° |
| 2026-05-07 14:41 | 53.35617 | -2.27923 | 240 ft | 11 kts | 46° |
| 2026-05-07 14:41 | 53.35681 | -2.27885 | 244 ft | 9 kts | 9° |
| 2026-05-07 14:41 | 53.35735 | -2.27874 | 246 ft | 7 kts | 5° |
| 2026-05-07 14:42 | 53.35776 | -2.27868 | 249 ft | 5 kts | 5° |
| 2026-05-07 14:42 | 53.35804 | -2.27864 | 250 ft | 3 kts | 4° |
| 2026-05-07 14:42 | 53.35823 | -2.27862 | 251 ft | 2 kts | 4° |
| 2026-05-07 14:42 | 53.35839 | -2.27860 | 252 ft | 2 kts | 4° |
| 2026-05-07 14:43 | 53.35852 | -2.27858 | 253 ft | 2 kts | 4° |
| 2026-05-07 14:43 | 53.35863 | -2.27857 | 253 ft | 2 kts | 4° |
| 2026-05-07 14:43 | 53.35878 | -2.27855 | 254 ft | 2 kts | 4° |
| 2026-05-07 14:43 | 53.35897 | -2.27853 | 255 ft | 3 kts | 4° |
| 2026-05-07 14:44 | 53.35929 | -2.27851 | 255 ft | 7 kts | 356° |
| 2026-05-07 14:44 | 53.35966 | -2.27871 | 255 ft | 10 kts | 332° |
| 2026-05-07 14:44 | 53.36028 | -2.27962 | 255 ft | 14 kts | 310° |
| 2026-05-07 14:44 | 53.36093 | -2.28063 | 255 ft | 0 kts | 322° |
| 2026-05-07 14:45 | 53.36109 | -2.28078 | 255 ft | 5 kts | 335° |
| 2026-05-07 14:45 | 53.36146 | -2.28130 | 255 ft | 9 kts | 319° |
| 2026-05-07 14:45 | 53.36199 | -2.28225 | 255 ft | 13 kts | 311° |
| 2026-05-07 14:45 | 53.36274 | -2.28356 | 255 ft | 18 kts | 316° |
| 2026-05-07 14:46 | 53.36382 | -2.28477 | 255 ft | 20 kts | 346° |
| 2026-05-07 14:46 | 53.36502 | -2.28630 | 255 ft | 24 kts | 314° |
| 2026-05-07 14:46 | 53.36587 | -2.28797 | 255 ft | 16 kts | 297° |
| 2026-05-07 14:46 | 53.36649 | -2.28970 | 255 ft | 19 kts | 306° |
| 2026-05-07 14:47 | 53.36744 | -2.29113 | 255 ft | 13 kts | 335° |
| 2026-05-07 14:47 | 53.36812 | -2.29090 | 255 ft | 1 kts | 20° |
| 2026-05-07 14:47 | 53.36832 | -2.29076 | 255 ft | 5 kts | 29° |
| 2026-05-07 14:47 | 53.36861 | -2.29038 | 255 ft | 1 kts | 37° |
| 2026-05-07 14:48 | 53.36877 | -2.29015 | 255 ft | 5 kts | 40° |
| 2026-05-07 14:48 | 53.36916 | -2.28954 | 255 ft | 10 kts | 44° |
| 2026-05-07 14:48 | 53.36958 | -2.28883 | 255 ft | 2 kts | 45° |
| 2026-05-07 14:48 | 53.36974 | -2.28858 | 255 ft | 0 kts | 44° |
| 2026-05-07 14:49 | 53.36976 | -2.28855 | 255 ft | 2 kts | 44° |
| 2026-05-07 14:49 | 53.36996 | -2.28821 | 255 ft | 6 kts | 44° |
| 2026-05-07 14:49 | 53.36993 | -2.28758 | 255 ft | 8 kts | 146° |
| 2026-05-07 14:49 | 53.36960 | -2.28715 | 255 ft | 1 kts | 136° |
| 2026-05-07 14:50 | 53.36947 | -2.28695 | 255 ft | 0 kts | 136° |